createdAt,value
2023-04-25T00:00:42.264Z,6.14
2023-04-25T00:03:33.240Z,6.13
2023-04-25T00:06:37.368Z,6.10
2023-04-25T00:09:43.454Z,6.10
2023-04-25T00:12:44.146Z,6.08
2023-04-25T00:15:38.911Z,6.07
2023-04-25T00:18:33.191Z,6.09
2023-04-25T00:21:42.570Z,6.11
2023-04-25T00:24:33.302Z,6.13
2023-04-25T00:27:23.746Z,6.14
2023-04-25T00:30:17.155Z,6.15
2023-04-25T00:33:07.886Z,6.16
2023-04-25T00:36:01.015Z,6.18
2023-04-25T00:38:51.511Z,6.22
2023-04-25T00:41:54.379Z,6.26
2023-04-25T00:44:45.107Z,6.28
2023-04-25T00:47:35.530Z,6.28
2023-04-25T00:50:28.124Z,6.27
2023-04-25T00:53:38.674Z,6.23
2023-04-25T00:56:31.948Z,6.18
2023-04-25T00:59:24.413Z,6.14
2023-04-25T01:02:37.943Z,6.08
2023-04-25T01:05:39.553Z,6.02
2023-04-25T01:08:41.520Z,5.96
2023-04-25T01:11:31.774Z,5.91
2023-04-25T01:14:32.548Z,5.87
2023-04-25T01:17:45.294Z,5.79
2023-04-25T01:20:36.219Z,5.72
2023-04-25T01:23:27.192Z,5.66
2023-04-25T01:26:30.787Z,5.62
2023-04-25T01:29:22.283Z,5.58
2023-04-25T01:32:16.179Z,5.54
2023-04-25T01:35:10.264Z,5.50
2023-04-25T01:38:00.902Z,5.49
2023-04-25T01:40:54.493Z,5.48
2023-04-25T01:43:47.833Z,5.46
2023-04-25T01:46:51.229Z,5.40
2023-04-25T01:49:41.549Z,5.34
2023-04-25T01:52:32.034Z,5.29
2023-04-25T01:55:22.981Z,5.23
2023-04-25T01:58:21.046Z,5.18
2023-04-25T02:01:34.181Z,5.14
2023-04-25T02:04:35.286Z,5.09
2023-04-25T02:07:26.205Z,5.07
2023-04-25T02:10:17.350Z,5.05
2023-04-25T02:13:27.174Z,5.05
2023-04-25T02:16:47.503Z,5.10
2023-04-25T02:19:40.289Z,5.15
2023-04-25T02:22:50.900Z,5.18
2023-04-25T02:25:51.265Z,5.21
2023-04-25T02:28:41.856Z,5.25
2023-04-25T02:31:35.332Z,5.27
2023-04-25T02:34:40.678Z,5.29
2023-04-25T02:37:41.672Z,5.29
2023-04-25T02:40:31.797Z,5.25
2023-04-25T02:43:41.579Z,5.21
2023-04-25T02:46:52.097Z,5.16
2023-04-25T02:50:02.831Z,5.13
2023-04-25T02:52:53.379Z,5.08
2023-04-25T02:56:00.477Z,5.04
2023-04-25T02:58:54.496Z,5.00
2023-04-25T03:01:56.042Z,4.95
2023-04-25T03:04:49.215Z,4.91
2023-04-25T03:07:44.768Z,4.86
2023-04-25T03:10:40.813Z,4.81
2023-04-25T03:13:34.204Z,4.77
2023-04-25T03:16:27.746Z,4.73
2023-04-25T03:19:19.416Z,4.68
2023-04-25T03:22:09.595Z,4.60
2023-04-25T03:25:20.086Z,4.53
2023-04-25T03:28:13.784Z,4.47
2023-04-25T03:31:24.264Z,4.41
2023-04-25T03:34:34.675Z,4.36
2023-04-25T03:37:46.729Z,4.30
2023-04-25T03:40:41.483Z,4.26
2023-04-25T03:43:52.364Z,4.24
2023-04-25T03:46:45.952Z,4.24
2023-04-25T03:49:39.102Z,4.25
2023-04-25T03:52:49.541Z,4.26
2023-04-25T03:55:50.048Z,4.26
2023-04-25T03:58:54.566Z,4.25
2023-04-25T04:01:48.999Z,4.24
2023-04-25T04:04:42.834Z,4.25
2023-04-25T04:07:40.834Z,4.27
2023-04-25T04:10:51.310Z,4.29
2023-04-25T04:13:51.274Z,4.27
2023-04-25T04:16:55.577Z,4.24
2023-04-25T04:20:07.501Z,4.20
2023-04-25T04:23:17.683Z,4.14
2023-04-25T04:26:28.562Z,4.08
2023-04-25T04:29:42.526Z,3.99
2023-04-25T04:32:39.484Z,3.92
2023-04-25T04:35:44.047Z,3.86
2023-04-25T04:38:42.093Z,3.81
2023-04-25T04:41:37.383Z,3.78
2023-04-25T04:44:56.182Z,3.73
2023-04-25T04:48:09.864Z,3.66
2023-04-25T04:51:20.418Z,3.60
2023-04-25T04:54:33.548Z,3.55
2023-04-25T04:57:56.632Z,3.50
2023-04-25T05:01:09.963Z,3.44
2023-04-25T05:04:18.413Z,3.40
2023-04-25T05:07:47.166Z,3.37
2023-04-25T05:11:09.518Z,3.35
2023-04-25T05:14:25.873Z,3.33
2023-04-25T05:17:51.462Z,3.31
2023-04-25T05:20:50.984Z,3.32
2023-04-25T05:24:08.075Z,3.34
2023-04-25T05:27:20.447Z,3.38
2023-04-25T05:30:32.604Z,3.45
2023-04-25T05:33:49.082Z,3.52
2023-04-25T05:36:53.277Z,3.59
2023-04-25T05:39:46.791Z,3.66
2023-04-25T05:42:55.642Z,3.75
2023-04-25T05:46:07.086Z,3.79
2023-04-25T05:49:26.368Z,3.81
2023-04-25T05:52:43.427Z,3.81
2023-04-25T05:55:53.912Z,3.83
2023-04-25T05:58:46.204Z,3.85
2023-04-25T06:01:57.185Z,3.88
2023-04-25T06:04:52.325Z,3.89
2023-04-25T06:07:42.814Z,3.91
2023-04-25T06:10:45.976Z,3.93
2023-04-25T06:13:46.717Z,3.95
2023-04-25T06:16:57.381Z,4.00
2023-04-25T06:20:09.596Z,4.06
2023-04-25T06:23:20.221Z,4.13
2023-04-25T06:26:30.725Z,4.20
2023-04-25T06:29:23.346Z,4.24
2023-04-25T06:32:29.286Z,4.25
2023-04-25T06:35:25.666Z,4.28
2023-04-25T06:38:36.854Z,4.32
2023-04-25T06:41:47.522Z,4.40
2023-04-25T06:44:56.914Z,4.49
2023-04-25T06:47:54.671Z,4.59
2023-04-25T06:50:45.757Z,4.70
2023-04-25T06:53:39.181Z,4.79
2023-04-25T06:56:39.034Z,4.87
2023-04-25T06:59:33.968Z,4.97
2023-04-25T07:02:36.278Z,5.11
2023-04-25T07:05:47.319Z,5.25
2023-04-25T07:08:40.762Z,5.39
2023-04-25T07:11:31.266Z,5.54
2023-04-25T07:14:22.477Z,5.69
2023-04-25T07:17:12.890Z,5.83
2023-04-25T07:20:10.457Z,5.96
2023-04-25T07:23:03.927Z,6.10
2023-04-25T07:25:57.504Z,6.25
2023-04-25T07:28:52.115Z,6.43
2023-04-25T07:31:54.199Z,6.59
2023-04-25T07:34:45.208Z,6.79
2023-04-25T07:37:38.737Z,6.97
2023-04-25T07:40:37.624Z,7.14
2023-04-25T07:43:31.972Z,7.30
2023-04-25T07:46:22.975Z,7.44
2023-04-25T07:49:16.472Z,7.54
2023-04-25T07:52:09.806Z,7.64
2023-04-25T07:55:02.017Z,7.78
2023-04-25T07:58:04.864Z,7.96
2023-04-25T08:00:55.909Z,8.14
2023-04-25T08:03:58.699Z,8.30
2023-04-25T08:07:10.793Z,8.48
2023-04-25T08:10:12.120Z,8.60
2023-04-25T08:13:03.682Z,8.68
2023-04-25T08:15:54.322Z,8.74
2023-04-25T08:18:45.187Z,8.87
2023-04-25T08:21:35.709Z,9.87
2023-04-25T08:24:28.537Z,11.66
2023-04-25T08:27:20.050Z,13.65
2023-04-25T08:30:11.238Z,15.49
2023-04-25T08:33:02.399Z,17.21
2023-04-25T08:36:11.850Z,19.02
2023-04-25T08:39:02.287Z,20.45
2023-04-25T08:41:53.801Z,20.93
2023-04-25T08:44:45.152Z,21.68
2023-04-25T08:47:36.049Z,22.75
2023-04-25T08:50:27.648Z,23.72
2023-04-25T08:53:20.493Z,24.71
2023-04-25T08:56:14.345Z,25.61
2023-04-25T08:59:04.918Z,26.29
2023-04-25T09:01:55.273Z,26.58
2023-04-25T09:04:46.852Z,27.16
2023-04-25T09:07:37.828Z,27.74
2023-04-25T09:10:28.791Z,27.09
2023-04-25T09:13:27.888Z,26.73
2023-04-25T09:17:00.524Z,27.23
2023-04-25T09:20:09.818Z,27.68
2023-04-25T09:23:06.575Z,28.00
2023-04-25T09:25:58.767Z,27.00
2023-04-25T09:28:50.067Z,26.27
2023-04-25T09:31:42.855Z,25.00
2023-04-25T09:34:41.219Z,23.35
2023-04-25T09:37:32.807Z,21.80
2023-04-25T09:40:54.032Z,20.78
2023-04-25T09:43:51.610Z,22.61
2023-04-25T09:46:43.244Z,24.48
2023-04-25T09:49:43.420Z,25.95
2023-04-25T09:52:35.976Z,26.99
2023-04-25T09:55:48.478Z,26.04
2023-04-25T09:58:39.879Z,26.17
2023-04-25T10:01:31.095Z,26.49
2023-04-25T10:04:33.863Z,26.61
2023-04-25T10:07:32.656Z,27.05
2023-04-25T10:10:26.909Z,27.04
2023-04-25T10:13:17.560Z,26.72
2023-04-25T10:16:07.982Z,26.44
2023-04-25T10:18:58.985Z,26.25
2023-04-25T10:21:52.528Z,25.60
2023-04-25T10:24:43.424Z,24.06
2023-04-25T10:27:34.298Z,22.85
2023-04-25T10:30:24.723Z,21.56
2023-04-25T10:33:20.293Z,20.81
2023-04-25T10:36:15.349Z,20.16
2023-04-25T10:39:10.010Z,19.61
2023-04-25T10:42:00.867Z,19.08
2023-04-25T10:45:05.177Z,18.78
2023-04-25T10:47:55.728Z,18.61
2023-04-25T10:50:45.947Z,18.48
2023-04-25T10:53:37.118Z,18.75
2023-04-25T10:56:27.605Z,19.46
2023-04-25T10:59:18.582Z,20.36
2023-04-25T11:02:14.691Z,21.08
2023-04-25T11:05:05.507Z,20.59
2023-04-25T11:10:52.280Z,20.42
2023-04-25T11:13:42.385Z,20.66
2023-04-25T11:16:33.464Z,20.99
2023-04-25T11:19:23.609Z,23.48
2023-04-25T11:22:14.408Z,26.10
2023-04-25T11:25:08.763Z,27.56
2023-04-25T11:27:59.931Z,28.54
2023-04-25T11:30:52.380Z,28.83
2023-04-25T11:33:43.678Z,29.22
2023-04-25T11:36:33.899Z,27.92
2023-04-25T11:39:24.114Z,27.19
2023-04-25T11:42:14.362Z,28.23
2023-04-25T11:45:05.492Z,28.24
2023-04-25T11:47:55.621Z,28.49
2023-04-25T11:50:45.904Z,28.85
2023-04-25T11:53:36.284Z,29.80
2023-04-25T11:56:26.496Z,28.27
2023-04-25T11:59:17.850Z,25.78
2023-04-25T12:02:08.182Z,24.74
2023-04-25T12:05:16.002Z,26.12
2023-04-25T12:08:15.610Z,27.71
2023-04-25T12:11:06.847Z,28.83
2023-04-25T12:13:56.981Z,28.83
2023-04-25T12:16:47.587Z,28.97
2023-04-25T12:19:41.284Z,27.68
2023-04-25T12:22:32.968Z,25.04
2023-04-25T12:25:39.448Z,23.14
2023-04-25T12:28:29.705Z,21.83
2023-04-25T12:31:19.870Z,20.75
2023-04-25T12:34:10.048Z,19.99
2023-04-25T12:37:00.250Z,19.57
2023-04-25T12:39:52.322Z,19.38
2023-04-25T12:42:42.509Z,19.43
2023-04-25T12:45:32.568Z,19.46
2023-04-25T12:48:23.375Z,19.30
2023-04-25T12:51:13.386Z,19.00
2023-04-25T12:54:03.852Z,18.57
2023-04-25T12:56:53.961Z,18.12
2023-04-25T12:59:44.051Z,17.73
2023-04-25T13:02:34.216Z,17.43
2023-04-25T13:05:24.512Z,17.46
2023-04-25T13:08:14.658Z,17.37
2023-04-25T13:11:04.698Z,17.23
2023-04-25T13:13:54.917Z,16.89
2023-04-25T13:16:45.321Z,16.49
2023-04-25T13:19:35.565Z,16.08
2023-04-25T13:22:25.808Z,15.58
2023-04-25T13:25:16.495Z,15.22
2023-04-25T13:28:07.087Z,15.07
2023-04-25T13:30:57.224Z,15.04
2023-04-25T13:33:47.415Z,15.21
2023-04-25T13:36:37.636Z,15.50
2023-04-25T13:39:27.758Z,15.98
2023-04-25T13:42:18.216Z,16.94
2023-04-25T13:45:09.599Z,17.09
2023-04-25T13:47:59.828Z,17.07
2023-04-25T13:50:49.901Z,17.02
2023-04-25T13:53:40.310Z,16.81
2023-04-25T13:56:30.393Z,16.44
2023-04-25T13:59:20.928Z,15.92
2023-04-25T14:02:11.237Z,15.46
2023-04-25T14:05:01.384Z,15.24
2023-04-25T14:07:51.566Z,14.97
2023-04-25T14:10:41.853Z,14.64
2023-04-25T14:13:31.988Z,14.43
2023-04-25T14:16:22.126Z,14.31
2023-04-25T14:19:12.400Z,14.25
2023-04-25T14:22:02.576Z,14.31
2023-04-25T14:24:53.287Z,14.49
2023-04-25T14:27:43.362Z,14.84
2023-04-25T14:30:33.390Z,15.53
2023-04-25T14:33:24.763Z,16.00
2023-04-25T14:36:15.410Z,16.07
2023-04-25T14:39:06.312Z,16.21
2023-04-25T14:41:57.225Z,16.17
2023-04-25T14:44:47.480Z,15.91
2023-04-25T14:47:38.380Z,15.57
2023-04-25T14:50:28.528Z,15.38
2023-04-25T14:53:18.750Z,15.12
2023-04-25T14:56:09.970Z,14.93
2023-04-25T14:59:00.177Z,14.70
2023-04-25T15:01:50.218Z,14.55
2023-04-25T15:04:40.654Z,14.48
2023-04-25T15:07:30.821Z,14.32
2023-04-25T15:10:21.484Z,14.15
2023-04-25T15:13:11.786Z,13.98
2023-04-25T15:16:02.153Z,13.81
2023-04-25T15:18:52.387Z,13.71
2023-04-25T15:21:42.464Z,13.61
2023-04-25T15:24:32.697Z,13.49
2023-04-25T15:27:23.328Z,13.39
2023-04-25T15:30:16.351Z,13.26
2023-04-25T15:33:06.830Z,13.11
2023-04-25T15:35:58.734Z,12.87
2023-04-25T15:38:48.908Z,12.59
2023-04-25T15:41:39.388Z,12.36
2023-04-25T15:44:29.611Z,12.22
2023-04-25T15:47:19.786Z,12.07
2023-04-25T15:50:10.780Z,11.99
2023-04-25T15:53:01.044Z,11.95
2023-04-25T15:55:51.322Z,11.90
2023-04-25T15:58:41.479Z,11.92
2023-04-25T16:01:32.109Z,12.02
2023-04-25T16:04:22.596Z,12.16
2023-04-25T16:07:12.967Z,12.29
2023-04-25T16:10:03.090Z,12.35
2023-04-25T16:12:53.932Z,12.46
2023-04-25T16:15:44.297Z,12.62
2023-04-25T16:18:34.542Z,12.76
2023-04-25T16:21:24.819Z,12.86
2023-04-25T16:24:15.058Z,12.86
2023-04-25T16:27:05.342Z,12.77
2023-04-25T16:29:55.466Z,12.67
2023-04-25T16:32:45.908Z,12.56
2023-04-25T16:35:36.081Z,12.42
2023-04-25T16:38:26.376Z,12.25
2023-04-25T16:41:16.730Z,12.14
2023-04-25T16:44:08.380Z,12.01
2023-04-25T16:46:58.614Z,11.90
2023-04-25T16:49:48.940Z,11.81
2023-04-25T16:52:39.396Z,11.73
2023-04-25T16:55:29.588Z,11.69
2023-04-25T16:58:19.650Z,11.69
2023-04-25T17:01:09.724Z,11.73
2023-04-25T17:04:00.362Z,11.74
2023-04-25T17:06:50.803Z,11.73
2023-04-25T17:09:41.185Z,11.65
2023-04-25T17:12:33.708Z,11.58
2023-04-25T17:15:24.026Z,11.57
2023-04-25T17:18:14.398Z,11.57
2023-04-25T17:21:06.156Z,11.50
2023-04-25T17:23:57.543Z,11.38
2023-04-25T17:26:48.936Z,11.25
2023-04-25T17:29:39.734Z,11.11
2023-04-25T17:32:29.963Z,11.00
2023-04-25T17:35:20.423Z,10.92
2023-04-25T17:38:10.804Z,10.83
2023-04-25T17:41:00.902Z,10.77
2023-04-25T17:43:51.525Z,10.74
2023-04-25T17:46:41.783Z,10.73
2023-04-25T17:49:33.474Z,10.71
2023-04-25T17:52:23.657Z,10.67
2023-04-25T17:55:13.886Z,10.60
2023-04-25T17:58:04.231Z,10.56
2023-04-25T18:00:54.511Z,10.52
2023-04-25T18:03:49.398Z,10.44
2023-04-25T18:06:39.621Z,10.34
2023-04-25T18:09:30.071Z,10.30
2023-04-25T18:12:20.863Z,10.24
2023-04-25T18:15:14.260Z,10.18
2023-04-25T18:18:11.671Z,10.10
2023-04-25T18:21:04.144Z,10.03
2023-04-25T18:23:54.576Z,9.96
2023-04-25T18:26:44.946Z,9.90
2023-04-25T18:29:35.183Z,9.84
2023-04-25T18:32:25.667Z,9.78
2023-04-25T18:35:15.842Z,9.72
2023-04-25T18:38:06.209Z,9.65
2023-04-25T18:41:04.312Z,9.59
2023-04-25T18:44:02.682Z,9.52
2023-04-25T18:46:52.961Z,9.48
2023-04-25T18:49:45.425Z,9.44
2023-04-25T18:52:35.666Z,9.40
2023-04-25T18:55:25.978Z,9.37
2023-04-25T18:58:16.627Z,9.34
2023-04-25T19:01:06.960Z,9.33
2023-04-25T19:03:58.060Z,9.30
2023-04-25T19:06:50.139Z,9.27
2023-04-25T19:09:40.672Z,9.22
2023-04-25T19:12:31.209Z,9.17
2023-04-25T19:15:21.635Z,9.14
2023-04-25T19:18:11.808Z,9.11
2023-04-25T19:21:02.025Z,9.09
2023-04-25T19:23:54.770Z,9.05
2023-04-25T19:26:45.325Z,9.00
2023-04-25T19:29:36.304Z,8.97
2023-04-25T19:32:28.696Z,8.94
2023-04-25T19:35:18.999Z,8.91
2023-04-25T19:38:09.139Z,8.89
2023-04-25T19:40:59.540Z,8.85
2023-04-25T19:43:50.101Z,8.80
2023-04-25T19:46:51.643Z,8.77
2023-04-25T19:49:50.692Z,8.73
2023-04-25T19:52:41.549Z,8.70
2023-04-25T19:55:32.149Z,8.69
2023-04-25T19:58:22.674Z,8.67
2023-04-25T20:01:13.357Z,8.65
2023-04-25T20:04:04.042Z,8.62
2023-04-25T20:06:54.572Z,8.60
2023-04-25T20:09:44.872Z,8.57
2023-04-25T20:12:40.517Z,8.56
2023-04-25T20:15:30.972Z,8.54
2023-04-25T20:18:24.510Z,8.54
2023-04-25T20:21:14.836Z,8.53
2023-04-25T20:24:05.534Z,8.54
2023-04-25T20:26:57.391Z,8.53
2023-04-25T20:29:47.949Z,8.52
2023-04-25T20:32:45.860Z,8.49
2023-04-25T20:35:36.984Z,8.45
2023-04-25T20:38:27.530Z,8.42
2023-04-25T20:41:20.199Z,8.40
2023-04-25T20:44:15.583Z,8.39
2023-04-25T20:47:07.449Z,8.37
2023-04-25T20:50:04.136Z,8.35
2023-04-25T20:52:58.264Z,8.33
2023-04-25T20:55:51.707Z,8.33
2023-04-25T20:58:44.603Z,8.30
2023-04-25T21:01:37.292Z,8.29
2023-04-25T21:04:27.851Z,8.28
2023-04-25T21:07:18.464Z,8.27
2023-04-25T21:10:09.159Z,8.28
2023-04-25T21:12:59.732Z,8.30
2023-04-25T21:15:52.910Z,8.30
2023-04-25T21:18:43.279Z,8.31
2023-04-25T21:21:33.691Z,8.32
2023-04-25T21:24:24.134Z,8.32
2023-04-25T21:27:19.218Z,8.31
2023-04-25T21:30:10.771Z,8.31
2023-04-25T21:33:08.765Z,8.31
2023-04-25T21:36:09.372Z,8.29
2023-04-25T21:38:59.616Z,8.26
2023-04-25T21:41:49.943Z,8.26
2023-04-25T21:44:40.346Z,8.23
2023-04-25T21:47:31.065Z,8.20
2023-04-25T21:50:26.211Z,8.20
2023-04-25T21:53:16.396Z,8.19
2023-04-25T21:56:07.067Z,8.18
2023-04-25T21:58:57.895Z,8.16
2023-04-25T22:01:53.302Z,8.14
2023-04-25T22:04:47.392Z,8.12
2023-04-25T22:07:38.310Z,8.10
2023-04-25T22:10:32.793Z,8.08
2023-04-25T22:13:23.722Z,8.06
2023-04-25T22:16:14.124Z,8.05
2023-04-25T22:19:05.164Z,8.04
2023-04-25T22:21:58.499Z,8.02
2023-04-25T22:24:52.181Z,7.99
2023-04-25T22:27:45.118Z,7.96
2023-04-25T22:30:37.291Z,7.93
2023-04-25T22:33:33.574Z,7.90
2023-04-25T22:36:24.182Z,7.87
2023-04-25T22:39:17.158Z,7.85
2023-04-25T22:42:07.422Z,7.84
2023-04-25T22:44:58.022Z,7.82
2023-04-25T22:47:49.001Z,7.80
2023-04-25T22:50:41.000Z,7.78
2023-04-25T22:53:37.192Z,7.77
2023-04-25T22:56:28.215Z,7.77
2023-04-25T22:59:20.859Z,7.75
2023-04-25T23:02:13.728Z,7.74
2023-04-25T23:05:04.830Z,7.74
2023-04-25T23:07:56.158Z,7.74
2023-04-25T23:10:46.833Z,7.74
2023-04-25T23:13:37.873Z,7.75
2023-04-25T23:16:30.934Z,7.75
2023-04-25T23:19:21.441Z,7.75
2023-04-25T23:22:11.964Z,7.76
2023-04-25T23:25:05.507Z,7.77
2023-04-25T23:28:05.119Z,7.77
2023-04-25T23:30:56.003Z,7.78
2023-04-25T23:33:46.459Z,7.79
2023-04-25T23:36:37.998Z,7.80
2023-04-25T23:39:28.999Z,7.81
2023-04-25T23:42:19.732Z,7.83
2023-04-25T23:45:14.641Z,7.84
2023-04-25T23:48:05.164Z,7.84
2023-04-25T23:50:55.524Z,7.84
2023-04-25T23:53:46.143Z,7.83
2023-04-25T23:56:56.736Z,7.82
2023-04-25T23:59:56.608Z,7.81
